Open Full Screen Window  High Contrast Mode
Wind Gusting 00 knots
13
December 02, 2016 5:18 PM EST
Weather Information
Wind Direction
  270 °
Wind Speed
  13 kt (15 mph)
Wind Gust
  00 kt (0 mph)
Altimeter
30.09 in
Visibility
10 SM
Temperature
02° C
36° F
Dewpoint
00° C
32° F
Humidity
87%
1hr Rain Fall
00.00 in.
24hr Rain Fall
00.00 in.
Sky Condition
Overcast @ 4,800 ft
Broken @ 3,600 ft
Scattered @ 1,600 ft
VFR

METAR KPOV 022218Z AUTO 27013KT 10SM SCT016 BKN036 OVC048 02/00 A3009 RMK AO2 T00220000

*Background is not an actual portrayal of the airport.